createdAt,value
2022-08-19T00:01:31.232Z,98257.44
2022-08-19T00:04:02.216Z,98247.41
2022-08-19T00:06:29.682Z,98249.28
2022-08-19T00:08:57.263Z,98259.88
2022-08-19T00:11:25.575Z,98253.69
2022-08-19T00:13:52.667Z,98261.00
2022-08-19T00:16:19.020Z,98262.34
2022-08-19T00:18:52.026Z,98250.41
2022-08-19T00:21:18.516Z,98246.63
2022-08-19T00:23:45.032Z,98249.88
2022-08-19T00:26:11.810Z,98260.16
2022-08-19T00:28:38.454Z,98247.41
2022-08-19T00:31:06.065Z,98241.72
2022-08-19T00:33:32.979Z,98231.69
2022-08-19T00:36:00.875Z,98228.72
2022-08-19T00:38:35.014Z,98219.22
2022-08-19T00:41:03.985Z,98223.00
2022-08-19T00:43:30.587Z,98221.91
2022-08-19T00:45:56.893Z,98223.81
2022-08-19T00:48:23.454Z,98231.41
2022-08-19T00:50:52.316Z,98236.84
2022-08-19T00:53:21.168Z,98238.47
2022-08-19T00:55:48.745Z,98240.38
2022-08-19T00:58:19.810Z,98235.22
2022-08-19T01:00:46.969Z,98244.16
2022-08-19T01:03:15.310Z,98248.75
2022-08-19T01:05:43.091Z,98244.16
2022-08-19T01:08:10.211Z,98239.53
2022-08-19T01:10:39.028Z,98249.84
2022-08-19T01:13:05.598Z,98250.91
2022-08-19T01:15:34.537Z,98242.53
2022-08-19T01:18:02.280Z,98250.38
2022-08-19T01:20:28.739Z,98244.16
2022-08-19T01:22:57.452Z,98249.28
2022-08-19T01:25:27.699Z,98242.81
2022-08-19T01:27:55.545Z,98230.31
2022-08-19T01:30:34.317Z,98239.00
2022-08-19T01:33:01.116Z,98231.44
2022-08-19T01:35:28.912Z,98229.53
2022-08-19T01:37:57.222Z,98228.19
2022-08-19T01:40:25.481Z,98234.66
2022-08-19T01:42:52.055Z,98241.16
2022-08-19T01:45:19.495Z,98237.91
2022-08-19T01:47:51.635Z,98233.31
2022-08-19T01:50:29.028Z,98223.84
2022-08-19T01:53:02.347Z,98222.19
2022-08-19T01:55:32.945Z,98223.56
2022-08-19T01:58:01.602Z,98214.34
2022-08-19T02:00:30.833Z,98217.59
2022-08-19T02:02:57.425Z,98225.19
2022-08-19T02:05:23.858Z,98229.25
2022-08-19T02:07:50.962Z,98237.38
2022-08-19T02:10:21.888Z,98234.41
2022-08-19T02:12:49.015Z,98233.59
2022-08-19T02:15:16.691Z,98234.41
2022-08-19T02:17:43.094Z,98231.66
2022-08-19T02:20:10.071Z,98247.66
2022-08-19T02:22:36.606Z,98241.16
2022-08-19T02:25:03.739Z,98241.94
2022-08-19T02:27:30.210Z,98255.78
2022-08-19T02:29:56.753Z,98244.94
2022-08-19T02:32:23.265Z,98243.84
2022-08-19T02:34:49.704Z,98235.47
2022-08-19T02:37:16.080Z,98230.84
2022-08-19T02:39:42.489Z,98232.75
2022-08-19T02:42:09.014Z,98237.09
2022-08-19T02:44:35.704Z,98230.31
2022-08-19T02:47:02.029Z,98234.09
2022-08-19T02:49:28.438Z,98232.19
2022-08-19T02:51:54.978Z,98219.19
2022-08-19T02:54:21.720Z,98234.09
2022-08-19T02:56:49.229Z,98236.22
2022-08-19T02:59:15.884Z,98244.06
2022-08-19T03:01:43.151Z,98231.09
2022-08-19T03:04:10.925Z,98243.78
2022-08-19T03:06:38.969Z,98247.28
2022-08-19T03:09:05.550Z,98260.25
2022-08-19T03:11:33.116Z,98271.88
2022-08-19T03:14:00.314Z,98266.47
2022-08-19T03:16:28.066Z,98265.09
2022-08-19T03:18:55.282Z,98261.81
2022-08-19T03:21:23.262Z,98268.13
2022-08-19T03:23:49.774Z,98271.09
2022-08-19T03:26:17.211Z,98270.75
2022-08-19T03:28:51.309Z,98269.38
2022-08-19T03:31:43.975Z,98260.19
2022-08-19T03:34:16.942Z,98270.72
2022-08-19T03:36:43.657Z,98273.19
2022-08-19T03:39:10.491Z,98278.31
2022-08-19T03:41:45.681Z,98274.22
2022-08-19T03:44:17.846Z,98265.31
2022-08-19T03:46:45.669Z,98262.88
2022-08-19T03:49:13.968Z,98260.19
2022-08-19T03:51:42.307Z,98264.25
2022-08-19T03:54:10.793Z,98265.31
2022-08-19T03:56:38.156Z,98272.38
2022-08-19T03:59:05.612Z,98274.00
2022-08-19T04:01:34.966Z,98274.78
2022-08-19T04:04:02.336Z,98263.94
2022-08-19T04:06:32.794Z,98266.38
2022-08-19T04:09:00.156Z,98260.69
2022-08-19T04:11:43.120Z,98257.19
2022-08-19T04:14:12.105Z,98266.66
2022-08-19T04:16:39.117Z,98263.16
2022-08-19T04:19:07.365Z,98258.03
2022-08-19T04:21:34.138Z,98253.97
2022-08-19T04:24:00.956Z,98248.81
2022-08-19T04:26:29.602Z,98256.41
2022-08-19T04:28:56.148Z,98252.06
2022-08-19T04:31:24.285Z,98246.41
2022-08-19T04:33:51.087Z,98242.34
2022-08-19T04:36:19.689Z,98247.22
2022-08-19T04:38:51.573Z,98239.09
2022-08-19T04:41:17.979Z,98232.94
2022-08-19T04:43:45.840Z,98235.66
2022-08-19T04:46:13.169Z,98232.41
2022-08-19T04:49:00.368Z,98230.56
2022-08-19T04:51:36.964Z,98238.94
2022-08-19T04:54:04.048Z,98232.19
2022-08-19T04:56:30.879Z,98241.97
2022-08-19T04:58:57.495Z,98239.78
2022-08-19T05:01:25.686Z,98248.75
2022-08-19T05:03:52.278Z,98257.38
2022-08-19T05:06:20.029Z,98261.72
2022-08-19T05:08:46.935Z,98269.88
2022-08-19T05:11:15.869Z,98276.91
2022-08-19T05:13:43.445Z,98283.94
2022-08-19T05:16:10.584Z,98297.72
2022-08-19T05:18:37.273Z,98299.06
2022-08-19T05:21:06.996Z,98315.28
2022-08-19T05:23:33.527Z,98316.94
2022-08-19T05:25:59.993Z,98323.97
2022-08-19T05:28:26.311Z,98335.06
2022-08-19T05:30:52.785Z,98345.91
2022-08-19T05:33:19.524Z,98345.09
2022-08-19T05:35:46.030Z,98345.94
2022-08-19T05:38:12.770Z,98347.00
2022-08-19T05:40:40.234Z,98351.63
2022-08-19T05:43:08.101Z,98348.38
2022-08-19T05:45:38.728Z,98343.81
2022-08-19T05:48:05.263Z,98342.47
2022-08-19T05:50:32.020Z,98346.25
2022-08-19T05:52:58.635Z,98337.59
2022-08-19T05:55:25.308Z,98335.16
2022-08-19T05:57:51.937Z,98328.66
2022-08-19T06:00:21.487Z,98336.78
2022-08-19T06:02:53.120Z,98339.75
2022-08-19T06:05:20.049Z,98334.91
2022-08-19T06:07:46.398Z,98340.88
2022-08-19T06:10:12.915Z,98330.63
2022-08-19T06:12:39.509Z,98340.38
2022-08-19T06:15:08.657Z,98331.44
2022-08-19T06:17:35.222Z,98339.81
2022-08-19T06:20:02.107Z,98336.03
2022-08-19T06:22:29.056Z,98331.44
2022-08-19T06:24:56.336Z,98345.25
2022-08-19T06:27:22.842Z,98349.88
2022-08-19T06:29:49.267Z,98345.50
2022-08-19T06:32:17.099Z,98357.16
2022-08-19T06:34:43.593Z,98353.06
2022-08-19T06:37:10.094Z,98354.94
2022-08-19T06:39:39.382Z,98356.28
2022-08-19T06:42:06.907Z,98353.06
2022-08-19T06:44:35.404Z,98360.38
2022-08-19T06:47:14.919Z,98357.66
2022-08-19T06:49:49.867Z,98363.59
2022-08-19T06:52:16.736Z,98364.69
2022-08-19T06:54:55.831Z,98366.56
2022-08-19T06:57:23.390Z,98363.88
2022-08-19T06:59:49.988Z,98362.25
2022-08-19T07:04:48.251Z,98363.88
2022-08-19T07:07:21.249Z,98370.38
2022-08-19T07:09:58.211Z,98363.06
2022-08-19T07:12:27.056Z,98363.63
2022-08-19T07:14:53.672Z,98365.78
2022-08-19T07:17:21.167Z,98364.44
2022-08-19T07:19:48.226Z,98369.31
2022-08-19T07:22:15.343Z,98369.56
2022-08-19T07:24:51.133Z,98373.94
2022-08-19T07:27:18.610Z,98375.31
2022-08-19T07:29:56.014Z,98374.50
2022-08-19T07:32:24.334Z,98376.09
2022-08-19T07:34:51.976Z,98380.72
2022-08-19T07:37:18.280Z,98378.59
2022-08-19T07:39:44.820Z,98385.63
2022-08-19T07:42:13.612Z,98375.06
2022-08-19T07:47:48.872Z,98381.56
2022-08-19T07:49:59.114Z,98384.81
2022-08-19T07:52:25.726Z,98385.91
2022-08-19T07:54:52.187Z,98382.38
2022-08-19T07:57:18.827Z,98379.94
2022-08-19T07:59:45.902Z,98387.78
2022-08-19T08:02:12.299Z,98378.84
2022-08-19T08:04:38.694Z,98384.78
2022-08-19T08:07:06.232Z,98380.75
2022-08-19T08:09:34.940Z,98382.63
2022-08-19T08:15:02.430Z,98386.41
2022-08-19T08:17:31.015Z,98390.22
2022-08-19T08:20:15.687Z,98384.78
2022-08-19T08:22:45.980Z,98394.00
2022-08-19T08:25:17.254Z,98391.81
2022-08-19T08:27:44.899Z,98388.53
2022-08-19T08:30:14.797Z,98389.38
2022-08-19T08:32:41.915Z,98391.00
2022-08-19T08:35:11.337Z,98379.66
2022-08-19T08:37:38.270Z,98377.75
2022-08-19T08:40:15.506Z,98380.50
2022-08-19T08:42:46.523Z,98381.09
2022-08-19T08:45:14.459Z,98379.22
2022-08-19T08:47:42.715Z,98384.34
2022-08-19T08:50:13.204Z,98382.47
2022-08-19T08:52:45.824Z,98385.75
2022-08-19T08:55:14.830Z,98381.13
2022-08-19T08:57:50.345Z,98386.28
2022-08-19T09:00:21.625Z,98393.03
2022-08-19T09:02:50.422Z,98397.13
2022-08-19T09:05:18.052Z,98398.47
2022-08-19T09:08:07.694Z,98398.47
2022-08-19T09:11:00.699Z,98400.09
2022-08-19T09:13:50.497Z,98403.88
2022-08-19T09:16:19.419Z,98419.03
2022-08-19T09:18:55.362Z,98413.91
2022-08-19T09:21:25.734Z,98406.59
2022-08-19T09:23:56.889Z,98416.59
2022-08-19T09:26:24.565Z,98415.25
2022-08-19T09:29:11.412Z,98414.44
2022-08-19T09:31:37.866Z,98424.19
2022-08-19T09:34:04.391Z,98420.13
2022-08-19T09:36:35.263Z,98424.47
2022-08-19T09:39:01.983Z,98411.94
2022-08-19T09:41:29.056Z,98424.94
2022-08-19T09:43:56.920Z,98427.66
2022-08-19T09:46:24.652Z,98421.66
2022-08-19T09:48:52.050Z,98424.34
2022-08-19T09:51:20.169Z,98428.13
2022-08-19T09:53:48.522Z,98427.03
2022-08-19T09:56:20.469Z,98427.84
2022-08-19T09:58:47.070Z,98425.13
2022-08-19T10:01:18.178Z,98425.94
2022-08-19T10:03:44.709Z,98423.25
2022-08-19T10:06:15.177Z,98421.63
2022-08-19T10:08:50.200Z,98434.59
2022-08-19T10:11:27.211Z,98430.56
2022-08-19T10:13:55.380Z,98439.78
2022-08-19T10:16:22.668Z,98438.44
2022-08-19T10:18:52.947Z,98437.38
2022-08-19T10:21:27.319Z,98434.41
2022-08-19T10:23:55.771Z,98430.88
2022-08-19T10:26:24.420Z,98434.13
2022-08-19T10:28:53.039Z,98434.38
2022-08-19T10:31:22.704Z,98436.53
2022-08-19T10:34:10.102Z,98430.84
2022-08-19T10:36:38.656Z,98430.91
2022-08-19T10:39:23.576Z,98427.72
2022-08-19T10:41:49.916Z,98432.06
2022-08-19T10:44:16.223Z,98437.16
2022-08-19T10:46:48.303Z,98437.69
2022-08-19T10:49:15.208Z,98440.66
2022-08-19T10:51:47.964Z,98446.38
2022-08-19T10:54:15.459Z,98443.69
2022-08-19T10:56:41.973Z,98434.72
2022-08-19T10:59:08.509Z,98441.41
2022-08-19T11:01:35.415Z,98442.22
2022-08-19T11:04:03.197Z,98439.25
2022-08-19T11:06:30.000Z,98438.69
2022-08-19T11:08:56.639Z,98444.41
2022-08-19T11:11:23.594Z,98447.19
2022-08-19T11:13:50.677Z,98441.19
2022-08-19T11:16:18.944Z,98439.25
2022-08-19T11:18:46.782Z,98431.13
2022-08-19T11:21:16.066Z,98435.75
2022-08-19T11:23:42.563Z,98437.88
2022-08-19T11:26:08.868Z,98436.44
2022-08-19T11:28:35.236Z,98444.38
2022-08-19T11:31:01.647Z,98438.97
2022-08-19T11:33:28.278Z,98440.38
2022-08-19T11:35:55.061Z,98434.72
2022-08-19T11:38:21.690Z,98443.13
2022-08-19T11:40:54.870Z,98431.50
2022-08-19T11:43:21.231Z,98442.84
2022-08-19T11:45:47.713Z,98436.34
2022-08-19T11:48:14.931Z,98441.81
2022-08-19T11:50:41.205Z,98435.81
2022-08-19T11:53:07.696Z,98444.50
2022-08-19T11:55:38.578Z,98446.94
2022-08-19T11:58:18.596Z,98447.19
2022-08-19T12:00:46.427Z,98446.16
2022-08-19T12:03:13.566Z,98443.09
2022-08-19T12:05:40.666Z,98442.50
2022-08-19T12:08:07.771Z,98452.56
2022-08-19T12:10:34.642Z,98444.72
2022-08-19T12:13:01.085Z,98442.22
2022-08-19T12:15:28.221Z,98443.84
2022-08-19T12:18:00.077Z,98452.75
2022-08-19T12:20:26.435Z,98453.00
2022-08-19T12:22:52.938Z,98454.06
2022-08-19T12:25:19.551Z,98449.66
2022-08-19T12:27:56.806Z,98454.59
2022-08-19T12:30:23.806Z,98461.28
2022-08-19T12:32:50.232Z,98457.81
2022-08-19T12:35:16.904Z,98458.09
2022-08-19T12:37:43.292Z,98452.56
2022-08-19T15:40:14.287Z,98470.41
2022-08-19T15:42:40.930Z,98472.28
2022-08-19T15:45:07.955Z,98473.09
2022-08-19T15:47:35.434Z,98476.16
2022-08-19T15:50:06.310Z,98468.84
2022-08-19T15:52:37.130Z,98466.06
2022-08-19T15:55:09.213Z,98472.03
2022-08-19T15:57:42.562Z,98477.19
2022-08-19T16:00:09.354Z,98477.44
2022-08-19T16:02:37.866Z,98479.41
2022-08-19T16:05:07.665Z,98490.22
2022-08-19T16:07:34.042Z,98489.34
2022-08-19T16:10:26.436Z,98495.28
2022-08-19T16:12:47.025Z,98487.09
2022-08-19T16:15:13.698Z,98485.44
2022-08-19T16:17:40.150Z,98493.91
2022-08-19T16:20:07.670Z,98493.66
2022-08-19T16:22:34.268Z,98492.28
2022-08-19T16:25:00.810Z,98493.03
2022-08-19T16:27:27.132Z,98486.00
2022-08-19T16:29:53.556Z,98489.00
2022-08-19T16:32:19.932Z,98489.88
2022-08-19T16:34:46.921Z,98502.56
2022-08-19T16:37:13.746Z,98508.00
2022-08-19T16:39:40.947Z,98505.81
2022-08-19T16:42:10.542Z,98508.22
2022-08-19T16:44:40.066Z,98502.28
2022-08-19T16:47:06.517Z,98506.38
2022-08-19T16:49:54.289Z,98497.47
2022-08-19T16:52:20.031Z,98498.53
2022-08-19T16:54:47.073Z,98495.03
2022-08-19T16:57:13.611Z,98498.81
2022-08-19T16:59:44.163Z,98504.53
2022-08-19T17:02:15.502Z,98504.53
2022-08-19T17:04:42.080Z,98508.84
2022-08-19T17:07:09.522Z,98508.06
2022-08-19T17:09:36.365Z,98512.38
2022-08-19T17:12:04.670Z,98515.31
2022-08-19T17:14:31.297Z,98520.97
2022-08-19T17:16:57.581Z,98518.50
2022-08-19T17:19:23.926Z,98516.88
2022-08-19T17:21:50.320Z,98524.78
2022-08-19T17:24:16.645Z,98526.44
2022-08-19T17:26:43.409Z,98516.03
2022-08-19T17:29:09.856Z,98517.09
2022-08-19T17:31:36.431Z,98521.97
2022-08-19T17:34:03.634Z,98529.81
2022-08-19T17:36:30.974Z,98525.44
2022-08-19T17:38:59.021Z,98528.44
2022-08-19T17:41:26.603Z,98523.00
2022-08-19T17:43:53.046Z,98529.75
2022-08-19T17:46:19.652Z,98527.63
2022-08-19T17:48:51.211Z,98532.00
2022-08-19T17:51:21.991Z,98531.41
2022-08-19T17:53:49.478Z,98536.28
2022-08-19T17:56:16.216Z,98531.41
2022-08-19T17:58:42.886Z,98535.75
2022-08-19T18:01:13.890Z,98535.22
2022-08-19T18:03:41.254Z,98526.88
2022-08-19T18:06:08.333Z,98525.00
2022-08-19T18:08:34.945Z,98527.41
2022-08-19T18:11:01.575Z,98525.47
2022-08-19T18:13:27.913Z,98526.00
2022-08-19T18:15:54.172Z,98531.94
2022-08-19T18:18:20.693Z,98540.63
2022-08-19T18:20:46.996Z,98543.59
2022-08-19T18:23:43.827Z,98538.97
2022-08-19T18:26:00.167Z,98539.50
2022-08-19T18:28:26.597Z,98536.50
2022-08-19T18:30:53.023Z,98540.53
2022-08-19T18:33:19.743Z,98540.25
2022-08-19T18:35:48.403Z,98542.94
2022-08-19T18:38:15.887Z,98545.06
2022-08-19T18:40:42.287Z,98551.56
2022-08-19T18:43:09.040Z,98561.84
2022-08-19T18:45:35.575Z,98559.84
2022-08-19T18:48:01.928Z,98554.66
2022-08-19T18:50:28.601Z,98559.38
2022-08-19T18:52:55.099Z,98562.25
2022-08-19T18:55:22.325Z,98573.84
2022-08-19T18:57:48.760Z,98573.78
2022-08-19T19:00:18.324Z,98576.22
2022-08-19T19:02:44.726Z,98578.91
2022-08-19T19:05:12.847Z,98575.09
2022-08-19T19:07:39.680Z,98573.72
2022-08-19T19:10:06.927Z,98582.03
2022-08-19T19:12:37.259Z,98581.47
2022-08-19T19:15:03.980Z,98586.03
2022-08-19T19:17:30.259Z,98586.84
2022-08-19T19:19:56.819Z,98589.53
2022-08-19T19:22:23.723Z,98596.63
2022-08-19T19:24:50.953Z,98604.28
2022-08-19T19:27:18.247Z,98601.66
2022-08-19T19:29:46.456Z,98608.16
2022-08-19T19:32:24.398Z,98608.50
2022-08-19T19:34:51.261Z,98607.44
2022-08-19T19:37:17.591Z,98610.38
2022-08-19T19:39:46.679Z,98614.09
2022-08-19T19:42:19.815Z,98618.38
2022-08-19T19:44:47.411Z,98617.50
2022-08-19T19:47:14.281Z,98613.97
2022-08-19T19:49:57.994Z,98613.69
2022-08-19T19:52:27.250Z,98616.88
2022-08-19T19:54:53.588Z,98617.47
2022-08-19T19:57:20.089Z,98614.69
2022-08-19T19:59:51.427Z,98626.31
2022-08-19T20:02:18.159Z,98619.78
2022-08-19T20:04:44.475Z,98621.41
2022-08-19T20:07:10.807Z,98627.09
2022-08-19T20:09:58.395Z,98624.63
2022-08-19T20:12:23.560Z,98630.28
2022-08-19T20:14:50.099Z,98625.69
2022-08-19T20:17:16.414Z,98635.44
2022-08-19T20:19:42.896Z,98630.78
2022-08-19T20:22:09.412Z,98629.41
2022-08-19T20:24:37.352Z,98635.88
2022-08-19T20:27:07.128Z,98640.22
2022-08-19T20:29:39.032Z,98643.00
2022-08-19T20:32:07.541Z,98645.94
2022-08-19T20:34:34.002Z,98645.69
2022-08-19T20:37:00.667Z,98648.44
2022-08-19T20:39:27.021Z,98641.41
2022-08-19T20:41:53.351Z,98646.31
2022-08-19T20:44:19.908Z,98645.25
2022-08-19T20:46:55.340Z,98642.31
2022-08-19T20:49:26.962Z,98646.06
2022-08-19T20:51:54.081Z,98645.81
2022-08-19T20:54:20.438Z,98645.81
2022-08-19T20:56:46.746Z,98645.50
2022-08-19T20:59:13.022Z,98638.75
2022-08-19T21:01:40.151Z,98648.53
2022-08-19T21:04:06.498Z,98640.91
2022-08-19T21:06:32.944Z,98643.34
2022-08-19T21:08:59.378Z,98648.53
2022-08-19T21:11:25.775Z,98642.81
2022-08-19T21:13:52.071Z,98646.31
2022-08-19T21:16:18.519Z,98651.16
2022-08-19T21:18:44.898Z,98647.06
2022-08-19T21:21:11.314Z,98654.84
2022-08-19T21:23:37.653Z,98658.13
2022-08-19T21:26:04.213Z,98654.47
2022-08-19T21:28:36.053Z,98648.56
2022-08-19T21:31:04.086Z,98648.06
2022-08-19T21:33:31.757Z,98642.50
2022-08-19T21:35:59.117Z,98644.34
2022-08-19T21:38:25.930Z,98643.31
2022-08-19T21:40:52.562Z,98640.78
2022-08-19T21:43:18.957Z,98653.75
2022-08-19T21:45:45.972Z,98646.69
2022-08-19T21:48:12.643Z,98648.25
2022-08-19T21:50:39.162Z,98651.53
2022-08-19T21:53:05.612Z,98658.84
2022-08-19T21:55:32.127Z,98659.66
2022-08-19T21:57:58.637Z,98662.34
2022-08-19T22:00:25.430Z,98665.06
2022-08-19T22:02:52.128Z,98665.63
2022-08-19T22:05:19.767Z,98664.78
2022-08-19T22:07:46.255Z,98657.75
2022-08-19T22:10:13.720Z,98653.97
2022-08-19T22:12:40.293Z,98652.94
2022-08-19T22:15:18.430Z,98653.16
2022-08-19T22:17:45.083Z,98648.31
2022-08-19T22:20:12.918Z,98655.63
2022-08-19T22:22:44.727Z,98650.84
2022-08-19T22:25:31.879Z,98650.66
2022-08-19T22:28:00.383Z,98651.16
2022-08-19T22:30:27.273Z,98653.63
2022-08-19T22:33:00.717Z,98659.56
2022-08-19T22:35:28.305Z,98656.88
2022-08-19T22:37:54.908Z,98667.88
2022-08-19T22:40:21.408Z,98662.78
2022-08-19T22:42:47.747Z,98663.56
2022-08-19T22:45:16.694Z,98656.75
2022-08-19T22:47:43.072Z,98659.47
2022-08-19T22:50:13.985Z,98652.13
2022-08-19T22:52:40.679Z,98656.19
2022-08-19T22:55:18.569Z,98655.69
2022-08-19T22:57:44.879Z,98659.22
2022-08-19T23:00:11.719Z,98664.66
2022-08-19T23:02:38.407Z,98665.47
2022-08-19T23:05:06.114Z,98664.66
2022-08-19T23:07:32.834Z,98661.97
2022-08-19T23:09:59.195Z,98661.97
2022-08-19T23:12:30.050Z,98664.94
2022-08-19T23:15:00.445Z,98664.28
2022-08-19T23:17:26.975Z,98660.22
2022-08-19T23:19:53.270Z,98657.75
2022-08-19T23:22:19.613Z,98659.38
2022-08-19T23:24:51.755Z,98659.66
2022-08-19T23:27:22.705Z,98661.53
2022-08-19T23:29:50.240Z,98665.78
2022-08-19T23:32:17.650Z,98665.75
2022-08-19T23:34:44.154Z,98668.47
2022-08-19T23:37:10.453Z,98668.47
2022-08-19T23:39:36.911Z,98666.31
2022-08-19T23:42:04.258Z,98664.44
2022-08-19T23:44:31.882Z,98671.16
2022-08-19T23:47:00.125Z,98666.25
2022-08-19T23:49:32.743Z,98670.84
2022-08-19T23:51:59.515Z,98667.34
2022-08-19T23:54:42.747Z,98665.69
2022-08-19T23:57:13.738Z,98660.84
2022-08-19T23:59:41.188Z,98670.47
